Time;durP1;ratioP1;P1;durP2;ratioP2;P2;SDS_P1;SDS_P2;PMS_P1;PMS_P2;Temp;Humidity;BMP_temperature;BMP_pressure;BME280_temperature;BME280_humidity;BME280_pressure;Samples;Min_cycle;Max_cycle;Signal;HPM_P1;HPM_P2
2023/08/15 00:01:36;;;;;;;9.20;8.40;;;;;;;;;;5059717;28;20672;-66
2023/08/15 00:04:04;;;;;;;8.32;7.50;;;;;;;;;;5055901;28;20230;-67
2023/08/15 00:06:31;;;;;;;10.00;6.65;;;;;;;;;;5060484;28;20218;-66
2023/08/15 00:09:00;;;;;;;6.88;6.18;;;;;;;;;;5063707;28;20210;-66
2023/08/15 00:11:27;;;;;;;6.63;6.03;;;;;;;;;;5058384;28;20725;-69
2023/08/15 00:13:56;;;;;;;6.55;5.97;;;;;;;;;;5062257;28;20810;-64
2023/08/15 00:16:24;;;;;;;6.97;6.28;;;;;;;;;;5063009;28;20269;-67
2023/08/15 00:18:51;;;;;;;9.30;6.15;;;;;;;;;;5065891;28;20197;-67
2023/08/15 00:21:19;;;;;;;7.10;6.40;;;;;;;;;;5066143;28;20202;-68
2023/08/15 00:23:46;;;;;;;6.30;5.30;;;;;;;;;;5060706;28;20256;-71
2023/08/15 00:26:14;;;;;;;6.50;5.90;;;;;;;;;;5058759;28;20230;-65
2023/08/15 00:28:42;;;;;;;9.15;6.30;;;;;;;;;;5065616;28;20682;-64
2023/08/15 00:31:10;;;;;;;6.60;5.95;;;;;;;;;;5061287;28;20694;-66
2023/08/15 00:33:38;;;;;;;7.43;5.90;;;;;;;;;;5059763;28;20237;-66
2023/08/15 00:36:05;;;;;;;6.82;6.22;;;;;;;;;;5061578;28;20252;-65
2023/08/15 00:38:32;;;;;;;9.82;5.93;;;;;;;;;;5059025;28;20217;-67
2023/08/15 00:41:00;;;;;;;8.05;6.30;;;;;;;;;;5055291;28;20214;-66
2023/08/15 00:43:27;;;;;;;6.93;6.30;;;;;;;;;;5061476;28;20233;-66
2023/08/15 00:45:54;;;;;;;7.95;7.15;;;;;;;;;;5055746;28;20583;-71
2023/08/15 00:48:22;;;;;;;8.75;7.07;;;;;;;;;;5062344;28;20786;-65
2023/08/15 00:50:50;;;;;;;7.57;6.85;;;;;;;;;;5060196;28;20251;-71
2023/08/15 00:53:18;;;;;;;6.55;5.97;;;;;;;;;;5062235;28;20207;-64
2023/08/15 00:55:46;;;;;;;7.07;6.40;;;;;;;;;;5055745;28;20714;-65
2023/08/15 00:58:15;;;;;;;7.10;6.40;;;;;;;;;;5055183;28;20209;-65
2023/08/15 01:00:42;;;;;;;9.57;6.80;;;;;;;;;;5060964;28;20235;-66
2023/08/15 01:03:10;;;;;;;6.53;5.97;;;;;;;;;;5056613;28;20205;-66
2023/08/15 01:05:39;;;;;;;7.20;6.60;;;;;;;;;;5062764;28;20225;-66
2023/08/15 01:08:07;;;;;;;8.98;6.57;;;;;;;;;;5059592;28;20220;-66
2023/08/15 01:10:34;;;;;;;6.63;6.13;;;;;;;;;;5057004;28;20197;-66
2023/08/15 01:13:08;;;;;;;8.75;6.68;;;;;;;;;;5063167;28;20201;-66
2023/08/15 01:15:38;;;;;;;6.85;6.15;;;;;;;;;;5064299;28;20205;-65
2023/08/15 01:18:06;;;;;;;7.32;6.53;;;;;;;;;;5056982;28;20210;-69
2023/08/15 01:20:34;;;;;;;7.18;5.65;;;;;;;;;;5060022;28;20690;-67
2023/08/15 01:23:02;;;;;;;8.48;6.13;;;;;;;;;;5059918;28;20202;-66
2023/08/15 01:25:32;;;;;;;12.38;6.90;;;;;;;;;;5058718;28;20694;-65
2023/08/15 01:28:00;;;;;;;7.05;6.25;;;;;;;;;;5062398;28;20209;-68
2023/08/15 01:30:27;;;;;;;7.13;6.43;;;;;;;;;;5068875;28;20247;-66
2023/08/15 01:33:07;;;;;;;6.30;5.55;;;;;;;;;;5057931;28;20204;-69
2023/08/15 01:35:58;;;;;;;7.63;6.50;;;;;;;;;;5059960;28;20227;-66
2023/08/15 01:38:29;;;;;;;6.72;6.15;;;;;;;;;;5063923;28;20290;-66
2023/08/15 01:40:58;;;;;;;6.68;6.00;;;;;;;;;;5057805;28;20220;-69
2023/08/15 01:43:26;;;;;;;7.72;6.43;;;;;;;;;;5063611;28;20213;-66
2023/08/15 01:45:54;;;;;;;6.85;6.30;;;;;;;;;;5055226;28;20234;-69
2023/08/15 01:48:22;;;;;;;7.25;6.53;;;;;;;;;;5061521;28;20206;-68
2023/08/15 01:50:49;;;;;;;7.07;6.55;;;;;;;;;;5057987;28;20198;-70
2023/08/15 01:53:16;;;;;;;7.78;6.38;;;;;;;;;;5061024;28;20251;-64
2023/08/15 01:55:43;;;;;;;6.90;6.20;;;;;;;;;;5061994;28;20234;-71
2023/08/15 01:58:11;;;;;;;9.85;6.10;;;;;;;;;;5057613;28;20664;-66
2023/08/15 02:00:38;;;;;;;6.50;5.90;;;;;;;;;;5059409;28;20205;-67
2023/08/15 02:03:05;;;;;;;7.10;6.40;;;;;;;;;;5060528;28;20262;-66
2023/08/15 02:05:33;;;;;;;7.22;6.63;;;;;;;;;;5059191;28;20630;-66
2023/08/15 02:08:02;;;;;;;7.68;6.88;;;;;;;;;;5060093;28;20206;-67
2023/08/15 02:10:29;;;;;;;8.15;6.50;;;;;;;;;;5059495;28;20201;-67
2023/08/15 02:12:56;;;;;;;10.13;6.78;;;;;;;;;;5057744;28;20201;-71
2023/08/15 02:15:24;;;;;;;7.18;6.47;;;;;;;;;;5055719;28;20202;-68
2023/08/15 02:17:51;;;;;;;7.43;6.72;;;;;;;;;;5054964;28;20576;-65
2023/08/15 02:20:18;;;;;;;10.35;7.38;;;;;;;;;;5054437;28;20210;-66
2023/08/15 02:22:46;;;;;;;7.55;6.80;;;;;;;;;;5055981;28;20210;-66
2023/08/15 02:25:13;;;;;;;7.55;6.85;;;;;;;;;;5061321;28;20229;-67
2023/08/15 02:27:40;;;;;;;7.05;6.45;;;;;;;;;;5063165;28;20571;-67
2023/08/15 02:30:08;;;;;;;7.05;6.45;;;;;;;;;;5067455;28;20643;-66
2023/08/15 02:32:35;;;;;;;7.25;6.60;;;;;;;;;;5065220;28;20618;-67
2023/08/15 02:35:03;;;;;;;8.00;7.22;;;;;;;;;;5067485;28;20252;-66
2023/08/15 02:37:30;;;;;;;7.47;6.88;;;;;;;;;;5063951;28;20229;-70
2023/08/15 02:39:58;;;;;;;10.82;7.30;;;;;;;;;;5064264;28;20202;-73
2023/08/15 02:42:25;;;;;;;7.10;6.50;;;;;;;;;;5063450;28;20701;-66
2023/08/15 02:44:52;;;;;;;6.90;6.20;;;;;;;;;;5060232;28;20229;-68
2023/08/15 02:47:20;;;;;;;7.18;6.60;;;;;;;;;;5059067;28;20221;-65
2023/08/15 02:49:47;;;;;;;7.78;7.03;;;;;;;;;;5067248;28;20194;-65
2023/08/15 02:52:14;;;;;;;7.75;6.65;;;;;;;;;;5053716;28;20206;-68
2023/08/15 02:54:42;;;;;;;7.38;6.68;;;;;;;;;;5064243;28;20652;-65
2023/08/15 02:57:09;;;;;;;7.25;6.65;;;;;;;;;;5061766;28;20643;-66
2023/08/15 02:59:37;;;;;;;8.48;7.20;;;;;;;;;;5060828;28;20202;-66
2023/08/15 03:02:04;;;;;;;9.85;8.70;;;;;;;;;;5063524;28;20264;-65
2023/08/15 03:04:31;;;;;;;8.75;6.95;;;;;;;;;;5074538;28;20210;-70
2023/08/15 03:06:59;;;;;;;6.22;5.63;;;;;;;;;;5081216;28;20218;-68
2023/08/15 03:09:26;;;;;;;8.45;5.90;;;;;;;;;;5066095;28;20210;-65
2023/08/15 03:11:53;;;;;;;6.50;5.80;;;;;;;;;;5057665;28;20202;-71
2023/08/15 03:14:20;;;;;;;7.70;5.55;;;;;;;;;;5060945;28;20202;-66
2023/08/15 03:16:48;;;;;;;6.90;6.15;;;;;;;;;;5067050;28;20221;-66
2023/08/15 03:19:15;;;;;;;8.05;6.30;;;;;;;;;;5064847;28;20213;-65
2023/08/15 03:21:42;;;;;;;6.13;5.25;;;;;;;;;;5054387;28;20577;-65
2023/08/15 03:24:10;;;;;;;10.87;6.17;;;;;;;;;;5066772;28;20664;-68
2023/08/15 03:26:37;;;;;;;7.05;6.30;;;;;;;;;;5063514;28;20297;-66
2023/08/15 03:29:05;;;;;;;6.22;5.70;;;;;;;;;;5063290;28;20203;-66
2023/08/15 03:31:32;;;;;;;6.43;5.70;;;;;;;;;;5057562;28;20199;-67
2023/08/15 03:33:59;;;;;;;7.10;6.13;;;;;;;;;;5059331;28;20206;-67
2023/08/15 03:36:27;;;;;;;5.72;5.32;;;;;;;;;;5062752;28;20221;-67
2023/08/15 03:38:54;;;;;;;6.35;5.78;;;;;;;;;;5062816;28;20198;-68
2023/08/15 03:41:21;;;;;;;6.38;5.28;;;;;;;;;;5059259;28;20210;-70
2023/08/15 03:43:48;;;;;;;6.50;6.00;;;;;;;;;;5060092;28;20198;-65
2023/08/15 03:46:16;;;;;;;6.00;5.50;;;;;;;;;;5062068;28;20364;-64
2023/08/15 03:48:43;;;;;;;5.80;5.40;;;;;;;;;;5062510;28;20206;-71
2023/08/15 03:51:11;;;;;;;6.70;5.85;;;;;;;;;;5061788;28;20214;-66
2023/08/15 03:53:49;;;;;;;5.70;5.20;;;;;;;;;;5054651;28;20738;-67
2023/08/15 03:56:16;;;;;;;5.75;5.10;;;;;;;;;;5062212;28;20293;-67
2023/08/15 03:58:44;;;;;;;5.75;5.28;;;;;;;;;;5059226;28;20709;-69
2023/08/15 04:01:11;;;;;;;6.30;5.80;;;;;;;;;;5056081;28;20310;-66
2023/08/15 04:03:38;;;;;;;6.20;5.70;;;;;;;;;;5059116;28;20251;-69
2023/08/15 04:06:05;;;;;;;6.85;6.00;;;;;;;;;;5059127;28;20229;-66
2023/08/15 04:08:33;;;;;;;7.70;6.90;;;;;;;;;;5055536;28;20213;-65
2023/08/15 04:11:00;;;;;;;7.20;5.82;;;;;;;;;;5061314;28;20194;-70
2023/08/15 04:13:28;;;;;;;7.43;6.85;;;;;;;;;;5058809;28;20206;-66
2023/08/15 04:15:55;;;;;;;8.93;8.10;;;;;;;;;;5057907;28;20229;-66
2023/08/15 04:18:22;;;;;;;7.85;7.25;;;;;;;;;;5060051;28;20547;-68
2023/08/15 04:20:49;;;;;;;8.18;7.35;;;;;;;;;;5055078;28;20206;-67
2023/08/15 04:23:17;;;;;;;8.45;7.30;;;;;;;;;;5062684;28;20663;-68
2023/08/15 04:25:45;;;;;;;7.68;6.90;;;;;;;;;;5057693;28;20257;-67
2023/08/15 04:28:13;;;;;;;8.32;6.07;;;;;;;;;;5061397;28;20206;-66
2023/08/15 04:30:41;;;;;;;6.43;5.82;;;;;;;;;;5065149;28;20256;-69
2023/08/15 04:33:08;;;;;;;6.72;5.57;;;;;;;;;;5064952;28;20602;-67
2023/08/15 04:35:35;;;;;;;5.47;5.07;;;;;;;;;;5058111;28;20229;-68
2023/08/15 04:38:03;;;;;;;6.07;5.43;;;;;;;;;;5056777;28;20215;-66
2023/08/15 04:40:31;;;;;;;6.35;5.40;;;;;;;;;;5057896;28;20206;-66
2023/08/15 04:42:59;;;;;;;5.88;5.38;;;;;;;;;;5054634;28;20252;-69
2023/08/15 04:45:26;;;;;;;6.63;5.60;;;;;;;;;;5064187;28;20270;-66
2023/08/15 04:47:54;;;;;;;6.88;5.63;;;;;;;;;;5064854;28;20251;-71
2023/08/15 04:50:21;;;;;;;6.20;5.35;;;;;;;;;;5061422;28;20222;-66
2023/08/15 04:52:49;;;;;;;5.93;5.32;;;;;;;;;;5063754;28;20197;-69
2023/08/15 04:55:16;;;;;;;5.63;4.57;;;;;;;;;;5057111;28;20205;-67
2023/08/15 04:57:44;;;;;;;6.05;5.43;;;;;;;;;;5060313;28;20748;-65
2023/08/15 05:00:11;;;;;;;6.13;5.28;;;;;;;;;;5061724;28;20593;-73
2023/08/15 05:03:07;;;;;;;6.97;5.28;;;;;;;;;;5059834;28;20233;-70
2023/08/15 05:05:34;;;;;;;6.60;5.32;;;;;;;;;;5058702;28;20226;-65
2023/08/15 05:08:02;;;;;;;5.68;5.15;;;;;;;;;;5064533;28;20728;-63
2023/08/15 05:10:29;;;;;;;5.90;5.32;;;;;;;;;;5058971;28;20225;-65
2023/08/15 05:12:59;;;;;;;7.47;5.30;;;;;;;;;;5057304;28;20205;-65
2023/08/15 05:15:27;;;;;;;6.30;5.70;;;;;;;;;;5065356;28;20212;-65
2023/08/15 05:17:55;;;;;;;5.90;5.38;;;;;;;;;;5060627;28;20252;-65
2023/08/15 05:20:22;;;;;;;6.15;5.63;;;;;;;;;;5056292;28;20206;-66
2023/08/15 05:22:50;;;;;;;7.35;5.85;;;;;;;;;;5068362;28;20205;-69
2023/08/15 05:25:17;;;;;;;7.88;5.90;;;;;;;;;;5054116;28;20221;-66
2023/08/15 05:27:45;;;;;;;7.53;5.95;;;;;;;;;;5058177;28;20221;-66
2023/08/15 05:30:12;;;;;;;6.10;5.45;;;;;;;;;;5056646;28;20202;-66
2023/08/15 05:32:39;;;;;;;5.38;4.90;;;;;;;;;;5060295;28;20526;-67
2023/08/15 05:35:07;;;;;;;9.35;5.30;;;;;;;;;;5058286;28;20284;-66
2023/08/15 05:37:34;;;;;;;6.45;5.85;;;;;;;;;;5057476;28;20217;-67
2023/08/15 05:40:02;;;;;;;7.13;5.50;;;;;;;;;;5055793;28;20202;-68
2023/08/15 05:42:31;;;;;;;5.90;5.45;;;;;;;;;;5052946;28;20259;-67
2023/08/15 05:44:58;;;;;;;6.97;6.18;;;;;;;;;;5051667;28;20206;-66
2023/08/15 05:47:25;;;;;;;7.03;5.57;;;;;;;;;;5058189;28;20221;-67
2023/08/15 05:49:53;;;;;;;8.20;6.78;;;;;;;;;;5063721;28;20204;-68
2023/08/15 05:52:20;;;;;;;7.90;7.05;;;;;;;;;;5061149;28;20206;-68
2023/08/15 05:54:47;;;;;;;9.50;6.28;;;;;;;;;;5055722;28;20270;-66
2023/08/15 05:57:15;;;;;;;7.43;5.70;;;;;;;;;;5057495;28;20233;-65
2023/08/15 05:59:42;;;;;;;6.53;5.93;;;;;;;;;;5063713;28;20202;-68
2023/08/15 06:02:09;;;;;;;5.70;5.28;;;;;;;;;;5058948;28;20264;-66
2023/08/15 06:04:36;;;;;;;6.00;5.40;;;;;;;;;;5063894;28;20275;-66
2023/08/15 06:07:04;;;;;;;6.25;5.68;;;;;;;;;;5058032;28;20261;-65
2023/08/15 06:09:31;;;;;;;8.27;5.43;;;;;;;;;;5062304;28;20586;-65
2023/08/15 06:11:59;;;;;;;6.40;5.53;;;;;;;;;;5062975;28;20205;-64
2023/08/15 06:14:26;;;;;;;6.43;5.53;;;;;;;;;;5060947;28;20255;-67
2023/08/15 06:16:53;;;;;;;5.57;4.75;;;;;;;;;;5069485;28;20691;-68
2023/08/15 06:19:21;;;;;;;5.93;5.38;;;;;;;;;;5064369;28;20202;-67
2023/08/15 06:21:48;;;;;;;5.68;4.70;;;;;;;;;;5067674;28;20686;-65
2023/08/15 06:24:15;;;;;;;5.35;4.80;;;;;;;;;;5070670;28;20209;-65
2023/08/15 06:26:43;;;;;;;5.63;5.10;;;;;;;;;;5065621;28;20233;-64
2023/08/15 06:29:10;;;;;;;8.88;5.05;;;;;;;;;;5063326;28;20757;-66
2023/08/15 06:31:37;;;;;;;6.85;4.70;;;;;;;;;;5059699;28;20206;-64
2023/08/15 06:34:05;;;;;;;5.88;4.60;;;;;;;;;;5056295;28;20679;-66
2023/08/15 06:36:32;;;;;;;6.28;5.07;;;;;;;;;;5058096;28;20278;-67
2023/08/15 06:39:00;;;;;;;5.40;4.35;;;;;;;;;;5061213;28;20615;-69
2023/08/15 06:41:27;;;;;;;5.40;4.30;;;;;;;;;;5059819;28;20660;-64
2023/08/15 06:43:54;;;;;;;6.15;4.38;;;;;;;;;;5058619;28;20206;-66
2023/08/15 06:46:22;;;;;;;6.63;4.95;;;;;;;;;;5062208;28;20544;-66
2023/08/15 06:48:49;;;;;;;7.13;4.57;;;;;;;;;;5057723;28;20203;-66
2023/08/15 06:51:17;;;;;;;5.22;4.72;;;;;;;;;;5064470;28;20198;-66
2023/08/15 06:53:44;;;;;;;5.68;4.72;;;;;;;;;;5060630;28;20541;-64
2023/08/15 06:56:12;;;;;;;6.40;4.90;;;;;;;;;;5062528;28;20308;-67
2023/08/15 06:58:40;;;;;;;5.10;4.60;;;;;;;;;;5060199;28;20198;-65
2023/08/15 07:01:07;;;;;;;5.20;4.10;;;;;;;;;;5064209;28;20602;-67
2023/08/15 07:03:34;;;;;;;6.10;4.47;;;;;;;;;;5059431;28;20224;-64
2023/08/15 07:06:03;;;;;;;4.00;3.58;;;;;;;;;;5065643;28;20251;-66
2023/08/15 07:08:31;;;;;;;4.30;3.90;;;;;;;;;;5061977;28;20297;-64
2023/08/15 07:10:59;;;;;;;3.92;3.58;;;;;;;;;;5062879;28;20257;-66
2023/08/15 07:13:26;;;;;;;5.95;4.25;;;;;;;;;;5059021;28;20205;-65
2023/08/15 07:15:57;;;;;;;5.97;4.30;;;;;;;;;;5057586;28;20222;-69
2023/08/15 07:18:24;;;;;;;5.05;4.10;;;;;;;;;;5062348;28;20211;-66
2023/08/15 07:20:53;;;;;;;6.82;3.75;;;;;;;;;;5065405;28;20740;-67
2023/08/15 07:23:20;;;;;;;4.57;3.90;;;;;;;;;;5063620;28;20212;-66
2023/08/15 07:25:48;;;;;;;5.38;3.63;;;;;;;;;;5063702;28;20230;-66
2023/08/15 07:28:15;;;;;;;6.72;3.70;;;;;;;;;;5055996;28;20211;-66
2023/08/15 07:30:45;;;;;;;7.85;3.78;;;;;;;;;;5063094;28;20214;-67
2023/08/15 07:33:16;;;;;;;6.03;3.38;;;;;;;;;;5060704;28;20256;-65
2023/08/15 07:35:43;;;;;;;5.15;3.60;;;;;;;;;;5057761;28;20233;-65
2023/08/15 07:38:10;;;;;;;6.07;3.65;;;;;;;;;;5061657;28;20210;-66
2023/08/15 07:40:37;;;;;;;4.57;3.20;;;;;;;;;;5060592;28;20217;-67
2023/08/15 07:43:05;;;;;;;3.85;3.20;;;;;;;;;;5063994;28;20591;-68
2023/08/15 07:45:32;;;;;;;7.25;3.78;;;;;;;;;;5061799;28;20210;-66
2023/08/15 07:47:59;;;;;;;4.70;3.70;;;;;;;;;;5063054;28;20571;-65
2023/08/15 07:50:28;;;;;;;4.60;3.30;;;;;;;;;;5063366;28;20858;-65
2023/08/15 07:52:58;;;;;;;5.20;3.50;;;;;;;;;;5062266;28;20209;-67
2023/08/15 07:55:26;;;;;;;5.03;3.70;;;;;;;;;;5063449;28;20200;-67
2023/08/15 07:57:57;;;;;;;7.13;3.75;;;;;;;;;;5065958;28;20300;-66
2023/08/15 08:00:24;;;;;;;13.63;3.58;;;;;;;;;;5068381;28;20629;-68
2023/08/15 08:02:52;;;;;;;5.20;3.60;;;;;;;;;;5052928;28;20632;-66
2023/08/15 08:05:20;;;;;;;5.53;3.60;;;;;;;;;;5060274;28;20205;-67
2023/08/15 08:07:49;;;;;;;5.47;3.75;;;;;;;;;;5066113;28;20216;-65
2023/08/15 08:10:17;;;;;;;8.13;3.75;;;;;;;;;;5061113;28;20233;-64
2023/08/15 08:12:45;;;;;;;6.07;3.50;;;;;;;;;;5062948;28;20197;-66
2023/08/15 08:15:13;;;;;;;7.13;3.80;;;;;;;;;;5064778;28;20203;-65
2023/08/15 08:17:40;;;;;;;5.47;3.95;;;;;;;;;;5058088;28;20316;-67
2023/08/15 08:20:16;;;;;;;6.20;3.15;;;;;;;;;;5062017;28;20233;-68
2023/08/15 08:22:44;;;;;;;4.63;3.50;;;;;;;;;;5061427;28;20316;-68
2023/08/15 08:25:21;;;;;;;7.03;3.42;;;;;;;;;;5058206;28;20218;-66
2023/08/15 08:27:49;;;;;;;7.97;3.47;;;;;;;;;;5058907;28;20360;-68
2023/08/15 08:30:17;;;;;;;5.95;3.13;;;;;;;;;;5063973;28;20194;-69
2023/08/15 08:32:45;;;;;;;5.20;2.95;;;;;;;;;;5065328;28;20252;-67
2023/08/15 08:35:15;;;;;;;5.82;2.88;;;;;;;;;;5063616;28;20217;-67
2023/08/15 08:37:43;;;;;;;5.97;3.03;;;;;;;;;;5059578;28;20234;-66
2023/08/15 08:40:12;;;;;;;6.03;2.88;;;;;;;;;;5063932;28;20214;-67
2023/08/15 08:42:40;;;;;;;7.85;4.82;;;;;;;;;;5064287;28;20293;-67
2023/08/15 08:45:10;;;;;;;5.70;3.35;;;;;;;;;;5058088;28;20610;-66
2023/08/15 08:47:41;;;;;;;6.78;2.95;;;;;;;;;;5055985;28;20241;-65
2023/08/15 08:50:09;;;;;;;4.45;3.17;;;;;;;;;;5053674;28;20711;-67
2023/08/15 08:52:49;;;;;;;5.32;2.83;;;;;;;;;;5060438;28;20198;-67
2023/08/15 08:55:24;;;;;;;8.15;2.83;;;;;;;;;;5057058;28;20219;-65
2023/08/15 08:57:52;;;;;;;7.55;2.92;;;;;;;;;;5060638;28;20225;-68
2023/08/15 09:00:23;;;;;;;6.13;3.05;;;;;;;;;;5057558;28;20214;-68
2023/08/15 09:02:52;;;;;;;5.13;2.65;;;;;;;;;;5056927;28;20206;-65
2023/08/15 09:05:20;;;;;;;4.10;2.50;;;;;;;;;;5058267;28;20198;-65
2023/08/15 09:07:48;;;;;;;7.90;2.90;;;;;;;;;;5064445;28;20239;-65
2023/08/15 09:10:15;;;;;;;7.22;3.25;;;;;;;;;;5056634;28;20813;-68
2023/08/15 09:12:44;;;;;;;4.63;2.97;;;;;;;;;;5064284;28;20223;-67
2023/08/15 09:15:11;;;;;;;6.55;2.72;;;;;;;;;;5054551;28;20206;-68
2023/08/15 09:17:39;;;;;;;6.03;3.15;;;;;;;;;;5063161;28;20241;-65
2023/08/15 09:20:18;;;;;;;5.45;2.72;;;;;;;;;;5062111;28;20255;-66
2023/08/15 09:22:46;;;;;;;6.30;3.03;;;;;;;;;;5056108;28;20259;-66
2023/08/15 09:25:18;;;;;;;4.78;3.05;;;;;;;;;;5055347;28;20210;-67
2023/08/15 09:27:45;;;;;;;5.90;3.17;;;;;;;;;;5057546;28;20237;-65
2023/08/15 09:30:16;;;;;;;5.40;2.85;;;;;;;;;;5057470;28;20236;-66
2023/08/15 09:32:45;;;;;;;7.20;2.88;;;;;;;;;;5054892;28;20601;-66
2023/08/15 09:35:14;;;;;;;6.07;2.60;;;;;;;;;;5051945;28;20293;-65
2023/08/15 09:37:42;;;;;;;8.50;3.08;;;;;;;;;;5057576;28;20271;-67
2023/08/15 09:40:16;;;;;;;5.75;2.38;;;;;;;;;;5053845;28;20215;-67
2023/08/15 09:42:45;;;;;;;3.78;2.58;;;;;;;;;;5051383;28;20198;-67
2023/08/15 09:45:16;;;;;;;2.35;2.10;;;;;;;;;;5056684;28;20206;-70
2023/08/15 09:47:44;;;;;;;7.00;2.30;;;;;;;;;;5055108;28;20225;-66
2023/08/15 09:50:12;;;;;;;3.42;2.42;;;;;;;;;;5060459;28;20259;-66
2023/08/15 09:52:43;;;;;;;3.92;2.47;;;;;;;;;;5056036;28;20201;-68
2023/08/15 09:55:14;;;;;;;3.45;2.70;;;;;;;;;;5055871;28;20343;-67
2023/08/15 09:57:44;;;;;;;3.78;2.40;;;;;;;;;;5056928;28;20233;-66
2023/08/15 10:00:13;;;;;;;7.10;2.20;;;;;;;;;;5053975;28;20206;-66
2023/08/15 10:02:45;;;;;;;3.72;2.17;;;;;;;;;;5053180;28;20198;-67
2023/08/15 10:05:13;;;;;;;3.30;1.95;;;;;;;;;;5060149;28;20308;-66
2023/08/15 10:07:42;;;;;;;2.95;2.30;;;;;;;;;;5058055;28;20278;-65
2023/08/15 10:10:09;;;;;;;4.38;2.20;;;;;;;;;;5057999;28;20209;-66
2023/08/15 10:12:38;;;;;;;4.45;2.13;;;;;;;;;;5057170;28;20652;-66
2023/08/15 10:15:06;;;;;;;3.00;2.20;;;;;;;;;;5055561;28;20608;-65
2023/08/15 10:17:34;;;;;;;2.85;2.17;;;;;;;;;;5054260;28;20224;-67
2023/08/15 10:20:02;;;;;;;4.07;2.20;;;;;;;;;;5057418;28;20613;-69
2023/08/15 10:22:33;;;;;;;9.35;2.83;;;;;;;;;;5053222;28;20711;-65
2023/08/15 10:25:23;;;;;;;2.50;2.17;;;;;;;;;;5057017;28;20627;-66
2023/08/15 10:27:51;;;;;;;6.53;2.60;;;;;;;;;;5055624;28;20313;-67
2023/08/15 10:30:36;;;;;;;4.72;2.60;;;;;;;;;;5060876;28;20225;-66
2023/08/15 10:33:13;;;;;;;4.35;2.63;;;;;;;;;;5057016;28;20201;-68
2023/08/15 10:35:51;;;;;;;8.77;5.15;;;;;;;;;;5058949;28;20225;-65
2023/08/15 10:38:21;;;;;;;4.65;2.30;;;;;;;;;;5057451;28;20206;-70
2023/08/15 10:40:51;;;;;;;3.65;2.53;;;;;;;;;;5060017;28;20581;-67
2023/08/15 10:43:18;;;;;;;3.55;2.15;;;;;;;;;;5060389;28;20209;-65
2023/08/15 10:45:48;;;;;;;2.42;2.20;;;;;;;;;;5057907;28;20312;-65
2023/08/15 10:48:15;;;;;;;4.20;2.75;;;;;;;;;;5056103;28;20230;-67
2023/08/15 10:50:44;;;;;;;6.28;2.50;;;;;;;;;;5058539;28;20201;-66
2023/08/15 10:53:11;;;;;;;4.40;2.85;;;;;;;;;;5055224;28;20206;-66
2023/08/15 10:55:39;;;;;;;4.63;2.72;;;;;;;;;;5065989;28;20202;-69
2023/08/15 10:58:07;;;;;;;5.60;2.67;;;;;;;;;;5057961;28;20206;-68
2023/08/15 11:00:36;;;;;;;3.17;2.60;;;;;;;;;;5061710;28;20228;-67
2023/08/15 11:03:04;;;;;;;5.22;2.95;;;;;;;;;;5058277;28;20819;-67
2023/08/15 11:05:32;;;;;;;5.70;2.95;;;;;;;;;;5061746;28;20213;-71
2023/08/15 11:08:09;;;;;;;5.95;2.83;;;;;;;;;;5058864;28;20222;-66
2023/08/15 11:10:36;;;;;;;3.50;2.60;;;;;;;;;;5068897;28;20622;-66
2023/08/15 11:13:03;;;;;;;5.05;2.90;;;;;;;;;;5063438;28;20849;-65
2023/08/15 11:15:32;;;;;;;2.75;2.55;;;;;;;;;;5056046;28;20202;-66
2023/08/15 11:17:59;;;;;;;4.18;2.50;;;;;;;;;;5060480;28;20210;-65
2023/08/15 11:20:30;;;;;;;5.85;2.60;;;;;;;;;;5060550;28;20197;-66
2023/08/15 11:22:57;;;;;;;3.38;2.50;;;;;;;;;;5066482;28;20259;-68
2023/08/15 11:25:25;;;;;;;3.17;2.35;;;;;;;;;;5072287;28;20201;-67
2023/08/15 11:27:52;;;;;;;4.25;2.75;;;;;;;;;;5063146;28;20221;-66
2023/08/15 11:30:20;;;;;;;4.00;2.72;;;;;;;;;;5061278;28;20376;-68
2023/08/15 11:32:47;;;;;;;2.47;2.00;;;;;;;;;;5060366;28;20208;-64
2023/08/15 11:35:14;;;;;;;3.80;2.53;;;;;;;;;;5059126;28;20319;-65
2023/08/15 11:37:42;;;;;;;5.07;2.63;;;;;;;;;;5062287;28;20237;-64
2023/08/15 11:40:09;;;;;;;4.75;2.70;;;;;;;;;;5064375;28;20562;-66
2023/08/15 11:42:37;;;;;;;5.97;3.45;;;;;;;;;;5066900;28;20214;-66
2023/08/15 11:45:17;;;;;;;3.45;2.53;;;;;;;;;;5064833;28;20205;-66
2023/08/15 11:47:57;;;;;;;2.90;2.33;;;;;;;;;;5062392;28;20248;-66
2023/08/15 11:50:25;;;;;;;5.35;2.65;;;;;;;;;;5060849;28;20198;-65
2023/08/15 11:53:13;;;;;;;7.23;4.83;;;;;;;;;;5060261;28;20206;-69
2023/08/15 11:55:41;;;;;;;9.48;6.50;;;;;;;;;;5054577;28;20229;-66
2023/08/15 11:58:26;;;;;;;4.05;2.88;;;;;;;;;;5058750;28;20217;-67
2023/08/15 12:00:56;;;;;;;4.05;2.95;;;;;;;;;;5061328;28;20213;-67
2023/08/15 12:03:27;;;;;;;3.75;2.60;;;;;;;;;;5053426;28;20233;-65
2023/08/15 12:05:58;;;;;;;4.15;2.78;;;;;;;;;;5061276;28;20593;-68
2023/08/15 12:08:26;;;;;;;6.53;3.10;;;;;;;;;;5061321;28;20232;-67
2023/08/15 12:10:56;;;;;;;4.85;2.63;;;;;;;;;;5064939;28;20194;-65
2023/08/15 12:13:30;;;;;;;5.15;3.20;;;;;;;;;;5057408;28;20202;-64
2023/08/15 12:15:58;;;;;;;4.07;2.60;;;;;;;;;;5057227;28;20758;-67
2023/08/15 12:18:25;;;;;;;2.35;2.15;;;;;;;;;;5060341;28;20208;-69
2023/08/15 12:20:53;;;;;;;3.85;2.58;;;;;;;;;;5063264;28;20353;-65
2023/08/15 12:23:20;;;;;;;3.65;2.95;;;;;;;;;;5063737;28;20209;-65
2023/08/15 12:25:55;;;;;;;4.78;2.70;;;;;;;;;;5056853;28;20229;-66
2023/08/15 12:28:22;;;;;;;5.78;4.25;;;;;;;;;;5059663;28;20225;-66
2023/08/15 12:30:50;;;;;;;8.15;3.85;;;;;;;;;;5060226;28;20211;-67
2023/08/15 12:33:17;;;;;;;6.60;4.57;;;;;;;;;;5062299;28;20205;-67
2023/08/15 12:36:05;;;;;;;5.75;3.20;;;;;;;;;;5054907;28;20352;-66
2023/08/15 12:38:32;;;;;;;6.47;3.13;;;;;;;;;;5058846;28;20202;-68
2023/08/15 12:40:59;;;;;;;4.10;2.22;;;;;;;;;;5057666;28;20207;-68
2023/08/15 12:43:26;;;;;;;2.65;2.40;;;;;;;;;;5058609;28;20209;-65
2023/08/15 12:45:54;;;;;;;4.53;2.30;;;;;;;;;;5060500;28;20602;-70
2023/08/15 12:48:22;;;;;;;4.32;2.13;;;;;;;;;;5056975;28;20725;-66
2023/08/15 12:50:49;;;;;;;3.83;2.90;;;;;;;;;;5058762;28;20198;-65
2023/08/15 12:53:17;;;;;;;10.77;4.85;;;;;;;;;;5061312;28;20198;-66
2023/08/15 12:55:45;;;;;;;2.45;2.08;;;;;;;;;;5059027;28;20214;-66
2023/08/15 12:58:12;;;;;;;3.58;2.30;;;;;;;;;;5059979;28;20197;-66
2023/08/15 13:00:41;;;;;;;2.45;2.22;;;;;;;;;;5059688;28;20213;-69
2023/08/15 13:03:09;;;;;;;5.22;3.47;;;;;;;;;;5078031;28;20202;-66
2023/08/15 13:05:37;;;;;;;4.43;2.30;;;;;;;;;;5056131;28;20632;-65
2023/08/15 13:08:05;;;;;;;5.90;2.70;;;;;;;;;;5052698;28;20585;-66
2023/08/15 13:10:32;;;;;;;6.10;3.40;;;;;;;;;;5058526;28;20992;-67
2023/08/15 13:12:59;;;;;;;3.83;2.47;;;;;;;;;;5051466;28;20194;-66
2023/08/15 13:15:26;;;;;;;5.32;2.40;;;;;;;;;;5060865;28;20622;-66
2023/08/15 13:17:54;;;;;;;3.90;2.47;;;;;;;;;;5059118;28;20929;-68
2023/08/15 13:20:22;;;;;;;4.00;2.20;;;;;;;;;;5057727;28;20209;-66
2023/08/15 13:22:49;;;;;;;3.10;2.05;;;;;;;;;;5056092;28;20206;-69
2023/08/15 13:25:16;;;;;;;2.80;2.50;;;;;;;;;;5057051;28;20201;-67
2023/08/15 13:27:44;;;;;;;2.42;2.00;;;;;;;;;;5060951;28;20225;-68
2023/08/15 13:30:11;;;;;;;2.47;2.28;;;;;;;;;;5055947;28;20259;-69
2023/08/15 13:32:38;;;;;;;3.88;2.30;;;;;;;;;;5055656;28;20832;-68
2023/08/15 13:35:05;;;;;;;3.25;2.10;;;;;;;;;;5054511;28;20667;-67
2023/08/15 13:37:33;;;;;;;2.65;2.25;;;;;;;;;;5058033;28;20279;-67
2023/08/15 13:40:00;;;;;;;2.53;2.05;;;;;;;;;;5052583;28;20213;-66
2023/08/15 13:42:27;;;;;;;4.38;2.30;;;;;;;;;;5054591;28;20245;-66
2023/08/15 13:45:06;;;;;;;3.08;2.05;;;;;;;;;;5064288;28;20216;-69
2023/08/15 13:47:40;;;;;;;3.30;2.22;;;;;;;;;;5055204;28;20232;-68
2023/08/15 13:50:08;;;;;;;4.55;2.40;;;;;;;;;;5063377;28;20652;-67
2023/08/15 13:52:36;;;;;;;4.07;2.25;;;;;;;;;;5054576;28;20440;-68
2023/08/15 13:55:04;;;;;;;2.90;2.35;;;;;;;;;;5060857;28;20202;-67
2023/08/15 13:57:32;;;;;;;3.47;2.08;;;;;;;;;;5060623;28;20260;-69
2023/08/15 14:00:00;;;;;;;5.90;2.17;;;;;;;;;;5059379;28;20213;-68
2023/08/15 14:02:28;;;;;;;2.72;2.17;;;;;;;;;;5057165;28;20197;-67
2023/08/15 14:04:55;;;;;;;2.97;2.40;;;;;;;;;;5058479;28;20205;-67
2023/08/15 14:07:23;;;;;;;2.78;2.30;;;;;;;;;;5063416;28;20220;-68
2023/08/15 14:09:50;;;;;;;2.95;2.30;;;;;;;;;;5060848;28;20443;-67
2023/08/15 14:12:24;;;;;;;2.72;2.17;;;;;;;;;;5060094;28;20201;-67
2023/08/15 14:14:52;;;;;;;3.63;2.17;;;;;;;;;;5053294;28;20206;-68
2023/08/15 14:17:19;;;;;;;3.45;2.38;;;;;;;;;;5057691;28;20235;-68
2023/08/15 14:19:47;;;;;;;2.28;2.08;;;;;;;;;;5057374;28;20844;-68
2023/08/15 14:22:15;;;;;;;7.68;2.17;;;;;;;;;;5060827;28;20205;-67
2023/08/15 14:24:46;;;;;;;3.38;1.92;;;;;;;;;;5063196;28;20201;-68
2023/08/15 14:27:14;;;;;;;3.15;2.35;;;;;;;;;;5062898;28;20225;-67
2023/08/15 14:29:41;;;;;;;3.63;2.17;;;;;;;;;;5062705;28;20212;-67
2023/08/15 14:32:09;;;;;;;3.50;2.08;;;;;;;;;;5062647;28;20205;-68
2023/08/15 14:34:36;;;;;;;3.20;2.45;;;;;;;;;;5062281;28;20244;-68
2023/08/15 14:37:03;;;;;;;2.47;2.10;;;;;;;;;;5053018;28;20602;-68
2023/08/15 14:39:32;;;;;;;3.63;2.28;;;;;;;;;;5057378;28;20275;-67
2023/08/15 14:41:59;;;;;;;5.18;2.20;;;;;;;;;;5057571;28;20718;-66
2023/08/15 14:44:27;;;;;;;4.28;2.67;;;;;;;;;;5059414;28;20208;-67
2023/08/15 14:46:54;;;;;;;3.50;2.25;;;;;;;;;;5055209;28;20304;-67
2023/08/15 14:49:21;;;;;;;2.38;2.08;;;;;;;;;;5061123;28;20290;-68
2023/08/15 14:51:49;;;;;;;2.30;2.10;;;;;;;;;;5063032;28;22725;-68